Time;durP1;ratioP1;P1;durP2;ratioP2;P2;SDS_P1;SDS_P2;PMS_P1;PMS_P2;Temp;Humidity;BMP_temperature;BMP_pressure;BME280_temperature;BME280_humidity;BME280_pressure;Samples;Min_cycle;Max_cycle;Signal;HPM_P1;HPM_P2
2022/04/30 00:02:09;;;;;;;18.88;11.43;;;;;;;14.86;nan;-24231.53;5010760;28;20176;-76
2022/04/30 00:04:39;;;;;;;18.13;11.40;;;;;;;14.96;nan;-24234.31;5009204;28;20199;-73
2022/04/30 00:07:05;;;;;;;18.90;11.65;;;;;;;14.97;nan;-24234.75;5010035;28;20180;-73
2022/04/30 00:09:32;;;;;;;20.63;11.93;;;;;;;14.66;nan;-24226.06;5010013;28;20627;-75
2022/04/30 00:11:58;;;;;;;16.52;11.50;;;;;;;15.04;nan;-24236.72;5008363;28;20180;-73
2022/04/30 00:14:24;;;;;;;21.02;11.93;;;;;;;14.95;nan;-24234.03;5007266;28;20180;-75
2022/04/30 00:16:50;;;;;;;19.65;12.32;;;;;;;14.72;nan;-24227.75;5006634;28;20184;-72
2022/04/30 00:19:16;;;;;;;18.77;11.80;;;;;;;15.03;nan;-24236.44;5006161;28;20230;-76
2022/04/30 00:21:42;;;;;;;22.67;11.90;;;;;;;14.70;nan;-24227.03;5008411;28;20196;-73
2022/04/30 00:24:07;;;;;;;22.30;12.55;;;;;;;14.94;nan;-24233.91;5010039;28;20176;-74
2022/04/30 00:26:33;;;;;;;18.20;11.48;;;;;;;14.85;nan;-24231.25;5008855;28;20188;-75
2022/04/30 00:29:00;;;;;;;19.85;12.40;;;;;;;15.02;nan;-24236.16;5009146;28;20200;-72
2022/04/30 00:31:26;;;;;;;20.40;12.15;;;;;;;14.76;nan;-24228.72;5005428;28;20275;-74
2022/04/30 00:33:52;;;;;;;24.15;13.20;;;;;;;15.26;nan;-24242.72;5008842;28;20198;-74
2022/04/30 00:36:18;;;;;;;22.30;12.57;;;;;;;15.17;nan;-24240.06;5004217;28;20667;-76
2022/04/30 00:38:43;;;;;;;19.90;12.48;;;;;;;14.91;nan;-24233.06;5002267;28;20180;-75
2022/04/30 00:41:10;;;;;;;20.88;12.55;;;;;;;14.93;nan;-24233.63;5001998;28;20180;-75
2022/04/30 00:43:48;;;;;;;21.15;12.55;;;;;;;14.89;nan;-24232.50;4998099;28;20643;-75
2022/04/30 00:46:18;;;;;;;20.90;12.10;;;;;;;14.74;nan;-24228.16;5000564;28;20306;-72
2022/04/30 00:48:45;;;;;;;20.98;12.77;;;;;;;14.62;nan;-24224.94;5002293;28;20200;-74
2022/04/30 00:51:16;;;;;;;22.00;12.18;;;;;;;14.66;nan;-24226.06;5005363;28;20214;-74
2022/04/30 00:53:48;;;;;;;19.33;11.80;;;;;;;14.94;nan;-24233.75;5004538;28;20707;-72
2022/04/30 00:56:17;;;;;;;21.80;13.55;;;;;;;14.93;nan;-24233.63;5003874;28;20718;-76
2022/04/30 00:58:45;;;;;;;23.15;12.80;;;;;;;15.02;nan;-24236.16;5002386;28;20183;-73
2022/04/30 01:01:11;;;;;;;21.67;12.68;;;;;;;14.52;nan;-24222.13;5007470;28;20655;-73
2022/04/30 01:03:37;;;;;;;21.25;12.95;;;;;;;15.00;nan;-24235.44;5010732;28;20199;-72
2022/04/30 01:06:04;;;;;;;20.65;12.98;;;;;;;14.85;nan;-24231.38;5011045;28;20180;-72
2022/04/30 01:08:30;;;;;;;22.48;13.18;;;;;;;14.64;nan;-24225.34;5009705;28;20200;-74
2022/04/30 01:10:59;;;;;;;22.88;13.02;;;;;;;14.56;nan;-24223.25;5010475;28;20176;-75
2022/04/30 01:13:25;;;;;;;22.75;13.43;;;;;;;14.74;nan;-24228.31;5012998;28;20180;-73
2022/04/30 01:15:51;;;;;;;21.20;12.68;;;;;;;14.84;nan;-24231.09;5008378;28;20246;-74
2022/04/30 01:18:17;;;;;;;23.17;12.82;;;;;;;14.56;nan;-24223.25;5009339;28;20196;-73
2022/04/30 01:20:51;;;;;;;20.98;12.95;;;;;;;14.56;nan;-24223.41;5010501;28;20191;-74
2022/04/30 01:23:17;;;;;;;22.02;12.95;;;;;;;14.45;nan;-24220.31;5008351;28;20202;-73
2022/04/30 01:25:46;;;;;;;23.70;13.20;;;;;;;14.63;nan;-24225.06;5009576;28;20705;-75
2022/04/30 01:28:12;;;;;;;21.00;12.63;;;;;;;14.42;nan;-24219.31;5012044;28;20208;-73
2022/04/30 01:30:38;;;;;;;22.60;12.88;;;;;;;14.59;nan;-24224.09;5008960;28;20560;-76
2022/04/30 01:37:22;;;;;;;20.35;12.75;;;;;;;14.59;nan;-24224.22;5012456;28;20196;-73
2022/04/30 01:38:58;;;;;;;21.48;12.60;;;;;;;14.32;nan;-24216.50;5010722;28;20192;-73
2022/04/30 01:41:24;;;;;;;25.45;13.15;;;;;;;14.66;nan;-24225.91;5006276;28;20248;-75
2022/04/30 01:44:19;;;;;;;24.02;13.73;;;;;;;14.64;nan;-24225.34;5007811;28;20200;-75
2022/04/30 01:46:55;;;;;;;23.42;14.15;;;;;;;14.37;nan;-24217.94;5005874;28;20265;-72
2022/04/30 01:49:20;;;;;;;23.65;13.63;;;;;;;14.33;nan;-24216.81;5003726;28;20287;-75
2022/04/30 01:51:52;;;;;;;26.17;14.80;;;;;;;14.68;nan;-24226.47;5008111;28;20551;-73
2022/04/30 01:54:18;;;;;;;23.27;14.38;;;;;;;14.73;nan;-24227.88;5004258;28;20215;-74
2022/04/30 01:56:44;;;;;;;22.92;13.93;;;;;;;14.64;nan;-24225.50;5010171;28;20852;-74
2022/04/30 01:59:09;;;;;;;24.88;14.23;;;;;;;14.26;nan;-24214.97;5007276;28;20264;-73
2022/04/30 02:01:37;;;;;;;25.58;14.30;;;;;;;13.84;nan;-24203.31;5006999;28;20274;-73
2022/04/30 02:04:04;;;;;;;22.35;12.75;;;;;;;14.50;nan;-24221.72;5007555;28;20192;-74
2022/04/30 02:06:30;;;;;;;20.63;13.05;;;;;;;14.16;nan;-24212.31;5005944;28;20180;-75
2022/04/30 02:08:56;;;;;;;24.92;13.43;;;;;;;14.51;nan;-24221.84;5005081;28;20979;-72
2022/04/30 02:11:22;;;;;;;22.55;13.80;;;;;;;14.54;nan;-24222.69;5006346;28;20199;-72
2022/04/30 02:13:53;;;;;;;23.35;14.32;;;;;;;14.56;nan;-24223.25;5011415;28;20191;-72
2022/04/30 02:16:23;;;;;;;25.10;14.43;;;;;;;14.28;nan;-24215.41;5007070;28;20185;-73
2022/04/30 02:18:49;;;;;;;23.55;14.02;;;;;;;14.16;nan;-24212.16;5003798;28;20184;-71
2022/04/30 02:21:20;;;;;;;21.70;13.40;;;;;;;14.15;nan;-24211.88;5006488;28;20651;-72
2022/04/30 02:23:49;;;;;;;22.23;13.63;;;;;;;14.22;nan;-24213.72;5009618;28;20234;-71
2022/04/30 02:26:16;;;;;;;22.15;14.10;;;;;;;14.56;nan;-24223.41;5007961;28;20601;-72
2022/04/30 02:28:42;;;;;;;22.52;13.80;;;;;;;14.46;nan;-24220.44;5007914;28;20222;-73
2022/04/30 02:31:18;;;;;;;25.50;14.70;;;;;;;13.79;nan;-24201.78;5009760;28;20168;-73
2022/04/30 02:33:43;;;;;;;24.33;14.48;;;;;;;14.43;nan;-24219.75;5009755;28;20637;-71
2022/04/30 02:36:09;;;;;;;24.30;14.70;;;;;;;14.40;nan;-24218.91;5007286;28;20263;-71
2022/04/30 02:38:36;;;;;;;25.15;14.00;;;;;;;14.12;nan;-24211.19;5007752;28;20190;-72
2022/04/30 02:41:01;;;;;;;24.92;14.13;;;;;;;14.32;nan;-24216.50;5005957;28;20188;-75
2022/04/30 02:43:28;;;;;;;25.73;14.35;;;;;;;13.97;nan;-24206.97;5006671;28;20565;-74
2022/04/30 02:45:53;;;;;;;25.55;13.88;;;;;;;14.00;nan;-24207.81;5003678;28;20199;-74
2022/04/30 02:48:19;;;;;;;22.20;13.65;;;;;;;13.91;nan;-24205.16;5041847;28;20822;-73
2022/04/30 02:50:44;;;;;;;24.30;14.60;;;;;;;13.92;nan;-24205.56;5005312;28;20275;-73
2022/04/30 02:53:10;;;;;;;24.92;13.45;;;;;;;14.00;nan;-24207.69;5005608;28;20184;-73
2022/04/30 02:55:36;;;;;;;25.50;14.25;;;;;;;14.32;nan;-24216.50;5009626;28;20180;-75
2022/04/30 03:00:51;;;;;;;22.27;13.43;;;;;;;14.04;nan;-24208.94;5007523;28;20797;-71
2022/04/30 03:03:17;;;;;;;22.58;13.65;;;;;;;13.94;nan;-24206.00;5006152;28;20735;-73
2022/04/30 03:05:44;;;;;;;22.38;13.85;;;;;;;13.87;nan;-24204.03;5007458;28;20184;-74
2022/04/30 03:08:12;;;;;;;28.98;13.98;;;;;;;13.87;nan;-24204.03;5007307;28;20212;-73
2022/04/30 03:10:42;;;;;;;24.20;14.50;;;;;;;14.22;nan;-24213.72;5009805;28;20176;-74
2022/04/30 03:13:08;;;;;;;20.45;13.40;;;;;;;13.94;nan;-24206.13;5008532;28;20180;-73
2022/04/30 03:15:34;;;;;;;23.10;14.10;;;;;;;13.79;nan;-24201.91;5008366;28;20259;-75
2022/04/30 03:23:30;;;;;;;20.38;13.68;;;;;;;14.19;nan;-24212.88;5008020;28;20206;-73
2022/04/30 03:25:56;;;;;;;24.90;14.32;;;;;;;14.39;nan;-24218.47;5007410;28;20697;-75
2022/04/30 03:28:21;;;;;;;26.90;15.40;;;;;;;14.38;nan;-24218.34;5007695;28;20204;-73
2022/04/30 03:30:47;;;;;;;25.05;15.07;;;;;;;14.16;nan;-24212.16;5006913;28;20651;-75
2022/04/30 03:33:12;;;;;;;23.92;14.48;;;;;;;14.14;nan;-24211.75;5007990;28;20210;-72
2022/04/30 03:35:41;;;;;;;30.63;15.20;;;;;;;14.16;nan;-24212.31;5007098;28;20283;-75
2022/04/30 03:38:07;;;;;;;28.13;15.73;;;;;;;14.33;nan;-24216.81;5003824;28;20176;-73
2022/04/30 03:40:35;;;;;;;27.85;15.32;;;;;;;13.88;nan;-24204.44;5007114;28;20180;-75
2022/04/30 03:43:03;;;;;;;24.88;14.90;;;;;;;13.81;nan;-24202.34;5010177;28;20246;-73
2022/04/30 03:45:29;;;;;;;23.55;15.35;;;;;;;13.39;nan;-24190.84;5008854;28;20279;-73
2022/04/30 03:47:54;;;;;;;25.33;14.93;;;;;;;14.10;nan;-24210.63;5007775;28;20203;-71
2022/04/30 03:50:19;;;;;;;24.40;14.85;;;;;;;13.73;nan;-24200.09;5006138;28;20244;-74
2022/04/30 03:52:45;;;;;;;28.75;15.13;;;;;;;14.06;nan;-24209.50;5006000;28;20187;-73
2022/04/30 03:55:10;;;;;;;24.45;14.45;;;;;;;14.05;nan;-24209.22;5006348;28;20447;-74
2022/04/30 03:57:36;;;;;;;22.55;14.45;;;;;;;13.89;nan;-24204.59;5007230;28;20655;-71
2022/04/30 04:00:04;;;;;;;25.90;14.77;;;;;;;13.98;nan;-24207.25;5007767;28;20187;-75
2022/04/30 04:02:30;;;;;;;27.13;15.10;;;;;;;13.86;nan;-24203.75;5004233;28;20203;-75
2022/04/30 04:04:56;;;;;;;28.05;15.93;;;;;;;14.08;nan;-24210.06;5006364;28;20207;-73
2022/04/30 04:07:21;;;;;;;23.88;14.75;;;;;;;13.96;nan;-24206.56;5002319;28;20738;-74
2022/04/30 04:09:47;;;;;;;26.38;14.68;;;;;;;14.10;nan;-24210.63;5004453;28;20176;-73
2022/04/30 04:12:12;;;;;;;30.13;15.63;;;;;;;14.28;nan;-24215.41;5007177;28;20180;-74
2022/04/30 04:17:40;;;;;;;28.23;17.50;;;;;;;13.54;nan;-24194.91;5002779;28;20219;-72
2022/04/30 04:20:08;;;;;;;27.67;16.92;;;;;;;13.98;nan;-24207.25;5005571;28;20184;-74
2022/04/30 04:22:34;;;;;;;28.67;17.67;;;;;;;13.84;nan;-24203.31;5002220;28;20271;-73
2022/04/30 09:55:04;;;;;;;9.57;6.55;;;;;;;20.86;nan;-24396.91;2593702;28;20304;-66
2022/04/30 09:57:34;;;;;;;7.90;6.18;;;;;;;21.55;nan;-24415.91;4980918;28;20189;-63
2022/04/30 10:00:03;;;;;;;8.73;6.72;;;;;;;22.18;nan;-24433.22;4975681;28;20284;-66
2022/04/30 10:02:31;;;;;;;7.72;6.30;;;;;;;23.15;nan;-24459.78;4975710;28;20178;-68
2022/04/30 10:04:57;;;;;;;7.38;6.18;;;;;;;23.56;nan;-24470.97;4975484;28;20268;-67
2022/04/30 10:07:25;;;;;;;7.25;5.85;;;;;;;23.43;nan;-24467.38;4975516;28;20217;-65
2022/04/30 10:10:08;;;;;;;10.75;6.55;;;;;;;22.99;nan;-24455.22;4975791;28;20212;-64
2022/04/30 10:12:47;;;;;;;8.52;6.55;;;;;;;22.51;nan;-24442.09;4975389;28;20178;-67
2022/04/30 10:15:30;;;;;;;7.30;6.03;;;;;;;21.60;nan;-24417.44;4975257;28;20624;-64
2022/04/30 10:17:57;;;;;;;6.90;5.90;;;;;;;20.98;nan;-24400.38;4957858;28;20624;-68
2022/04/30 10:20:34;;;;;;;8.18;6.60;;;;;;;21.90;nan;-24425.47;4975405;28;20177;-64
2022/04/30 10:23:00;;;;;;;7.30;5.90;;;;;;;22.20;nan;-24433.78;4975380;28;20185;-68
2022/04/30 10:25:33;;;;;;;7.93;5.90;;;;;;;21.14;nan;-24404.69;4975209;28;20262;-63
2022/04/30 10:27:59;;;;;;;6.47;5.18;;;;;;;20.96;nan;-24399.69;4974749;28;20184;-64
2022/04/30 10:30:27;;;;;;;7.57;5.45;;;;;;;20.65;nan;-24391.38;4975351;28;20209;-62
2022/04/30 10:33:03;;;;;;;7.38;5.10;;;;;;;20.70;nan;-24392.75;4976958;28;20177;-66
2022/04/30 10:35:30;;;;;;;6.75;5.13;;;;;;;20.94;nan;-24399.16;4979594;28;21097;-66
2022/04/30 10:38:06;;;;;;;5.82;4.90;;;;;;;21.38;nan;-24411.34;4980245;28;20192;-67
2022/04/30 10:41:01;;;;;;;5.78;4.97;;;;;;;21.96;nan;-24427.16;4982567;28;20216;-68
2022/04/30 10:43:34;;;;;;;6.10;5.22;;;;;;;21.75;nan;-24421.47;4972844;28;20196;-67
2022/04/30 10:46:00;;;;;;;5.30;4.75;;;;;;;22.10;nan;-24431.03;4979342;28;20219;-66
2022/04/30 10:48:26;;;;;;;5.25;4.75;;;;;;;21.76;nan;-24421.75;4978911;28;20256;-67
2022/04/30 10:51:40;;;;;;;7.03;5.00;;;;;;;21.41;nan;-24412.03;4982015;28;20189;-67
2022/04/30 10:54:18;;;;;;;5.85;4.88;;;;;;;20.55;nan;-24388.59;4976221;28;20292;-66
2022/04/30 10:56:45;;;;;;;5.20;4.70;;;;;;;20.28;nan;-24381.22;4978446;28;20593;-66
2022/04/30 10:59:21;;;;;;;5.28;4.72;;;;;;;20.64;nan;-24390.97;4976293;28;20284;-66
2022/04/30 11:01:50;;;;;;;6.35;4.50;;;;;;;20.43;nan;-24385.13;4978142;28;20204;-66
2022/04/30 11:04:17;;;;;;;5.85;4.57;;;;;;;21.12;nan;-24404.28;4981644;28;20208;-66
2022/04/30 11:06:43;;;;;;;6.93;4.90;;;;;;;21.51;nan;-24414.94;4978626;28;20181;-65
2022/04/30 11:09:09;;;;;;;5.63;4.90;;;;;;;21.34;nan;-24410.25;4982389;28;20215;-66
2022/04/30 11:11:36;;;;;;;5.32;4.30;;;;;;;22.03;nan;-24429.22;4977166;28;20193;-67
2022/04/30 13:00:06;;;;;;;2.80;2.50;;;;;;;23.97;nan;-24482.16;5212207;23;20480;-70
2022/04/30 13:02:34;;;;;;;2.60;2.35;;;;;;;23.33;nan;-24464.75;4954393;28;20204;-68
2022/04/30 13:04:59;;;;;;;3.47;2.50;;;;;;;22.60;nan;-24444.56;4953667;28;20198;-70
2022/04/30 13:07:25;;;;;;;3.13;2.47;;;;;;;22.48;nan;-24441.41;4954016;28;20189;-70
2022/04/30 13:15:18;;;;;;;4.32;2.60;;;;;;;21.93;nan;-24426.44;4956964;29;20244;-69
2022/04/30 13:17:43;;;;;;;2.60;2.40;;;;;;;22.42;nan;-24439.75;4961395;28;20189;-69
2022/04/30 13:20:11;;;;;;;3.15;2.55;;;;;;;22.09;nan;-24430.75;4962457;28;20656;-69
2022/04/30 13:22:37;;;;;;;3.53;2.45;;;;;;;22.68;nan;-24446.78;4959175;28;20237;-69
2022/04/30 13:25:04;;;;;;;3.80;2.50;;;;;;;22.73;nan;-24448.19;4956018;28;20276;-69
2022/04/30 13:27:31;;;;;;;3.67;2.20;;;;;;;22.67;nan;-24446.66;4959283;28;20190;-69
2022/04/30 13:29:57;;;;;;;2.80;2.33;;;;;;;22.62;nan;-24445.13;4955148;28;20260;-70
2022/04/30 13:32:22;;;;;;;3.67;2.20;;;;;;;22.49;nan;-24441.66;4958565;28;20266;-68
2022/04/30 13:34:47;;;;;;;2.60;2.40;;;;;;;22.32;nan;-24436.97;4955522;28;20182;-69
2022/04/30 13:37:13;;;;;;;2.85;2.55;;;;;;;22.43;nan;-24440.16;4955579;28;20243;-70
2022/04/30 13:39:38;;;;;;;2.88;2.50;;;;;;;22.28;nan;-24436.00;4944569;28;20194;-69
2022/04/30 13:42:05;;;;;;;4.07;2.70;;;;;;;22.18;nan;-24433.09;4960201;28;20206;-70
2022/04/30 13:44:31;;;;;;;2.85;2.40;;;;;;;21.59;nan;-24417.16;4950528;28;20174;-70
2022/04/30 13:46:56;;;;;;;3.15;2.25;;;;;;;21.51;nan;-24414.81;4951243;29;20178;-69
2022/04/30 13:49:22;;;;;;;2.70;2.50;;;;;;;22.06;nan;-24429.78;4955620;28;20305;-70
2022/04/30 13:51:48;;;;;;;2.70;2.35;;;;;;;22.55;nan;-24443.34;4958748;28;20185;-69
2022/04/30 13:54:14;;;;;;;5.10;2.40;;;;;;;22.80;nan;-24450.09;4957830;28;20185;-68
2022/04/30 13:56:39;;;;;;;5.60;2.40;;;;;;;22.83;nan;-24451.09;4954032;29;20280;-70
2022/04/30 13:59:06;;;;;;;2.63;2.40;;;;;;;22.85;nan;-24451.63;4952227;28;20673;-69
2022/04/30 14:01:33;;;;;;;2.55;2.33;;;;;;;23.21;nan;-24461.44;4967038;28;20308;-70
2022/04/30 14:03:59;;;;;;;2.40;2.20;;;;;;;23.09;nan;-24458.13;4942391;28;20641;-67
2022/04/30 14:06:27;;;;;;;2.20;2.00;;;;;;;22.32;nan;-24437.09;4961592;28;20189;-70
2022/04/30 14:08:53;;;;;;;3.08;2.22;;;;;;;22.44;nan;-24440.28;4962541;28;20681;-69
2022/04/30 14:11:19;;;;;;;2.90;2.47;;;;;;;21.91;nan;-24425.91;4958336;28;20201;-70
2022/04/30 14:16:30;;;;;;;3.40;2.17;;;;;;;21.05;nan;-24402.34;4959320;28;20272;-68
2022/04/30 14:18:56;;;;;;;2.42;2.03;;;;;;;20.90;nan;-24398.16;4957164;28;20186;-68
2022/04/30 14:21:22;;;;;;;2.60;2.20;;;;;;;20.52;nan;-24387.63;4960267;28;20189;-68
2022/04/30 14:23:47;;;;;;;3.15;2.15;;;;;;;20.67;nan;-24391.94;4956428;29;20201;-68
2022/04/30 14:26:14;;;;;;;3.92;2.20;;;;;;;20.32;nan;-24382.06;4960471;28;20193;-68
2022/04/30 14:28:40;;;;;;;4.20;2.72;;;;;;;20.42;nan;-24384.84;4961777;28;20201;-68
2022/04/30 14:31:05;;;;;;;4.95;2.22;;;;;;;20.40;nan;-24384.44;4957834;28;20255;-69
2022/04/30 14:33:31;;;;;;;4.45;2.85;;;;;;;20.08;nan;-24375.53;4960680;28;20555;-69
2022/04/30 14:35:57;;;;;;;5.18;2.90;;;;;;;20.05;nan;-24374.84;4957712;28;20288;-69
2022/04/30 14:38:23;;;;;;;4.35;2.90;;;;;;;20.08;nan;-24375.53;4955680;29;20316;-71
2022/04/30 14:40:48;;;;;;;4.93;3.00;;;;;;;20.06;nan;-24375.00;4955658;29;20653;-69
2022/04/30 14:43:14;;;;;;;5.25;2.70;;;;;;;19.59;nan;-24362.06;4940289;29;20246;-69
2022/04/30 14:45:42;;;;;;;6.07;3.30;;;;;;;20.11;nan;-24376.38;4955462;29;20261;-71
2022/04/30 14:48:09;;;;;;;5.07;2.50;;;;;;;19.97;nan;-24372.63;4955133;29;20604;-70
2022/04/30 14:50:35;;;;;;;5.18;2.38;;;;;;;19.95;nan;-24371.94;4954024;29;20201;-70
2022/04/30 14:53:00;;;;;;;2.75;2.10;;;;;;;19.52;nan;-24360.13;4954164;28;20638;-70
2022/04/30 14:55:26;;;;;;;3.65;2.63;;;;;;;19.47;nan;-24358.72;4955371;29;20174;-71
2022/04/30 14:57:52;;;;;;;3.08;2.17;;;;;;;19.79;nan;-24367.63;4953941;29;20178;-70
2022/04/30 15:00:18;;;;;;;3.67;2.90;;;;;;;19.46;nan;-24358.44;4956615;28;20236;-70
2022/04/30 15:02:44;;;;;;;3.38;2.35;;;;;;;19.60;nan;-24362.47;4955056;29;20209;-69
2022/04/30 15:05:10;;;;;;;2.90;2.50;;;;;;;19.83;nan;-24368.72;4954826;29;20256;-69
2022/04/30 15:07:36;;;;;;;2.70;2.30;;;;;;;19.11;nan;-24348.84;4954861;29;20644;-69
2022/04/30 15:10:02;;;;;;;7.03;2.72;;;;;;;19.79;nan;-24367.63;4955058;29;20205;-69
2022/04/30 15:12:28;;;;;;;3.00;2.47;;;;;;;19.78;nan;-24367.47;4954899;29;20178;-68
2022/04/30 15:14:53;;;;;;;3.75;2.80;;;;;;;19.68;nan;-24364.69;4954672;29;20205;-70
2022/04/30 15:17:19;;;;;;;3.85;3.28;;;;;;;18.84;nan;-24341.47;4957177;28;20265;-70
2022/04/30 15:19:44;;;;;;;3.63;2.58;;;;;;;19.79;nan;-24367.63;4957146;28;20185;-69
2022/04/30 15:22:10;;;;;;;3.58;2.80;;;;;;;19.21;nan;-24351.75;4959860;28;20610;-70
2022/04/30 15:24:35;;;;;;;4.95;2.83;;;;;;;19.29;nan;-24354.00;4959045;28;20722;-70
2022/04/30 15:27:01;;;;;;;3.65;2.90;;;;;;;19.29;nan;-24354.00;4959322;28;20185;-69
2022/04/30 15:29:30;;;;;;;3.55;3.00;;;;;;;19.50;nan;-24359.56;4959052;28;20205;-68
2022/04/30 15:31:56;;;;;;;8.75;3.05;;;;;;;19.41;nan;-24357.34;4958211;28;20186;-69
2022/04/30 15:34:22;;;;;;;6.28;3.28;;;;;;;19.11;nan;-24348.97;4960614;28;20263;-69
2022/04/30 15:36:47;;;;;;;3.35;2.90;;;;;;;19.34;nan;-24355.38;4959393;28;20628;-69
2022/04/30 15:39:13;;;;;;;3.45;3.15;;;;;;;19.38;nan;-24356.50;4957724;28;20178;-69
2022/04/30 15:41:38;;;;;;;5.43;3.45;;;;;;;19.14;nan;-24349.69;4958410;28;20181;-69
2022/04/30 15:44:04;;;;;;;3.30;3.00;;;;;;;19.34;nan;-24355.38;4958239;28;20574;-68
2022/04/30 15:51:58;;;;;;;8.20;5.70;;;;;;;18.08;nan;-24320.72;4957093;28;20675;-70
2022/04/30 15:54:29;;;;;;;7.50;5.35;;;;;;;17.99;nan;-24318.19;4958677;28;20192;-69
2022/04/30 15:56:55;;;;;;;8.48;4.88;;;;;;;17.94;nan;-24316.81;4959398;28;20245;-69
2022/04/30 15:59:21;;;;;;;7.57;5.28;;;;;;;18.03;nan;-24319.31;4956071;28;20182;-69
2022/04/30 16:01:46;;;;;;;7.78;5.15;;;;;;;18.30;nan;-24326.69;4961335;28;20236;-70
2022/04/30 16:04:12;;;;;;;6.80;5.38;;;;;;;18.10;nan;-24321.13;4950991;28;20271;-67
2022/04/30 16:06:37;;;;;;;8.65;5.43;;;;;;;18.25;nan;-24325.16;4957801;28;20682;-69
2022/04/30 16:09:03;;;;;;;7.38;5.50;;;;;;;17.86;nan;-24314.44;4956393;28;20206;-70
2022/04/30 16:11:34;;;;;;;6.65;5.32;;;;;;;18.00;nan;-24318.47;4958845;28;20186;-69
2022/04/30 16:14:00;;;;;;;7.70;4.90;;;;;;;17.95;nan;-24317.09;4957602;28;20186;-69
2022/04/30 16:16:27;;;;;;;7.53;5.28;;;;;;;17.69;nan;-24309.84;4959920;28;20181;-70
2022/04/30 16:18:53;;;;;;;7.43;5.18;;;;;;;17.38;nan;-24301.31;4958208;28;20197;-68
2022/04/30 16:21:19;;;;;;;5.32;4.65;;;;;;;16.88;nan;-24287.50;4957713;28;20592;-69
2022/04/30 16:23:45;;;;;;;5.50;4.78;;;;;;;17.17;nan;-24295.44;4946967;29;20222;-68
2022/04/30 16:26:12;;;;;;;7.82;5.78;;;;;;;17.27;nan;-24298.09;4959039;28;20185;-68
2022/04/30 16:28:37;;;;;;;7.13;5.47;;;;;;;17.17;nan;-24295.59;4960008;28;20715;-70
2022/04/30 16:31:03;;;;;;;6.13;4.82;;;;;;;17.00;nan;-24290.84;4957011;28;20217;-69
2022/04/30 16:33:28;;;;;;;5.55;4.93;;;;;;;17.13;nan;-24294.34;4960677;28;20192;-68
2022/04/30 16:35:54;;;;;;;9.25;5.22;;;;;;;16.78;nan;-24284.69;4958932;28;20182;-69
2022/04/30 16:38:19;;;;;;;5.88;4.70;;;;;;;16.79;nan;-24285.13;4958089;28;20209;-69
2022/04/30 16:40:44;;;;;;;5.53;4.20;;;;;;;17.03;nan;-24291.69;4960653;28;20173;-70
2022/04/30 16:43:10;;;;;;;4.82;4.32;;;;;;;16.25;nan;-24270.16;4958184;28;20197;-68
2022/04/30 16:45:35;;;;;;;4.95;4.10;;;;;;;16.93;nan;-24288.75;4958982;28;20217;-68
2022/04/30 16:48:01;;;;;;;6.20;4.53;;;;;;;17.29;nan;-24298.66;4957678;28;20648;-69
2022/04/30 16:50:27;;;;;;;5.03;4.30;;;;;;;17.50;nan;-24304.53;4958768;28;20198;-70
2022/04/30 16:52:53;;;;;;;9.00;4.72;;;;;;;17.36;nan;-24300.75;4960596;28;20174;-68
2022/04/30 16:58:03;;;;;;;7.78;5.10;;;;;;;17.47;nan;-24303.81;4957846;28;20188;-69
2022/04/30 17:00:30;;;;;;;6.35;5.00;;;;;;;17.32;nan;-24299.63;4958102;28;20232;-70
2022/04/30 17:02:56;;;;;;;6.55;5.30;;;;;;;17.19;nan;-24296.00;4959063;28;20728;-69
2022/04/30 17:05:23;;;;;;;8.38;5.03;;;;;;;17.55;nan;-24306.06;4959450;28;20213;-69
2022/04/30 17:07:53;;;;;;;9.20;5.47;;;;;;;17.63;nan;-24308.28;4955732;28;20655;-69
2022/04/30 17:10:19;;;;;;;10.80;6.82;;;;;;;17.41;nan;-24302.00;4959524;28;20209;-68
2022/04/30 17:12:46;;;;;;;10.57;6.78;;;;;;;17.65;nan;-24308.84;4957549;28;20596;-69
2022/04/30 17:15:13;;;;;;;18.08;8.32;;;;;;;17.35;nan;-24300.47;4958312;28;20578;-69
2022/04/30 17:17:41;;;;;;;7.25;4.82;;;;;;;17.57;nan;-24306.63;4958812;28;20181;-68
2022/04/30 17:20:12;;;;;;;5.53;4.53;;;;;;;17.81;nan;-24313.19;4959020;28;20189;-68
2022/04/30 17:22:41;;;;;;;5.85;3.90;;;;;;;17.97;nan;-24317.50;4957323;28;20274;-68
2022/04/30 17:25:09;;;;;;;6.30;3.63;;;;;;;17.96;nan;-24317.22;4957712;28;20228;-68
2022/04/30 17:27:35;;;;;;;5.10;3.45;;;;;;;17.73;nan;-24310.94;4954063;28;20575;-69
2022/04/30 17:30:01;;;;;;;5.50;3.70;;;;;;;17.88;nan;-24315.00;4957544;28;20206;-69
2022/04/30 17:37:57;;;;;;;4.60;3.20;;;;;;;17.57;nan;-24306.63;4957144;28;20189;-69
2022/04/30 17:40:24;;;;;;;4.90;3.72;;;;;;;17.88;nan;-24315.13;4959464;28;20190;-70
2022/04/30 17:42:49;;;;;;;6.32;3.58;;;;;;;17.76;nan;-24311.63;4952521;28;20319;-68
2022/04/30 17:45:15;;;;;;;5.43;3.70;;;;;;;18.01;nan;-24318.75;4958044;28;20648;-68
2022/04/30 17:47:41;;;;;;;4.82;3.50;;;;;;;18.07;nan;-24320.28;4959517;28;20696;-68
2022/04/30 17:50:08;;;;;;;5.45;3.60;;;;;;;18.13;nan;-24321.81;4954655;28;20268;-68
2022/04/30 17:52:34;;;;;;;5.50;3.40;;;;;;;18.03;nan;-24319.31;4957323;28;20193;-68
2022/04/30 17:55:00;;;;;;;4.72;3.30;;;;;;;18.10;nan;-24321.13;4955250;29;20194;-69
2022/04/30 17:57:25;;;;;;;5.97;3.22;;;;;;;17.46;nan;-24303.56;4958444;28;20187;-69
2022/04/30 17:59:52;;;;;;;4.93;3.35;;;;;;;17.90;nan;-24315.53;4960794;28;20209;-69
2022/04/30 18:02:22;;;;;;;4.65;3.40;;;;;;;17.06;nan;-24292.53;4958911;28;20228;-70
2022/04/30 18:04:48;;;;;;;9.52;3.35;;;;;;;17.74;nan;-24311.09;4961279;28;20178;-69
2022/04/30 18:07:15;;;;;;;5.75;3.42;;;;;;;17.91;nan;-24315.81;4961131;28;20225;-69
2022/04/30 18:09:41;;;;;;;5.22;3.50;;;;;;;17.63;nan;-24308.28;4963862;28;20770;-68
2022/04/30 18:12:07;;;;;;;4.55;3.60;;;;;;;17.99;nan;-24318.06;4956040;28;20198;-68
2022/04/30 18:14:38;;;;;;;4.38;3.17;;;;;;;18.02;nan;-24318.91;4950375;28;20189;-69
2022/04/30 18:17:08;;;;;;;4.85;3.28;;;;;;;17.98;nan;-24317.91;4956388;28;20244;-70
2022/04/30 18:19:34;;;;;;;4.60;3.40;;;;;;;17.63;nan;-24308.28;4956891;28;20509;-70
2022/04/30 18:22:00;;;;;;;4.47;2.92;;;;;;;17.97;nan;-24317.63;4955979;29;20186;-70
2022/04/30 18:24:26;;;;;;;4.32;3.30;;;;;;;17.71;nan;-24310.25;4957984;28;20198;-72
2022/04/30 18:26:55;;;;;;;4.32;3.15;;;;;;;17.84;nan;-24314.00;4956271;29;20642;-70
2022/04/30 18:29:21;;;;;;;5.07;3.30;;;;;;;17.75;nan;-24311.50;4956259;29;20205;-69
2022/04/30 18:31:46;;;;;;;5.93;3.88;;;;;;;17.70;nan;-24309.97;4958396;28;20197;-70
2022/04/30 18:34:13;;;;;;;3.67;2.80;;;;;;;17.79;nan;-24312.63;4958484;28;20213;-70
2022/04/30 18:36:40;;;;;;;5.18;3.20;;;;;;;17.81;nan;-24313.19;4957560;28;20189;-70
2022/04/30 18:39:06;;;;;;;3.05;2.67;;;;;;;17.35;nan;-24300.34;4957962;28;20193;-71
2022/04/30 18:41:33;;;;;;;7.80;3.10;;;;;;;17.45;nan;-24303.13;4958358;28;20208;-69
2022/04/30 18:44:00;;;;;;;3.53;2.58;;;;;;;17.84;nan;-24314.00;4958299;28;20190;-69
2022/04/30 18:46:26;;;;;;;3.97;3.22;;;;;;;17.81;nan;-24313.03;4950790;28;20272;-68
2022/04/30 18:48:51;;;;;;;5.22;3.50;;;;;;;17.64;nan;-24308.56;4955319;28;20336;-70
2022/04/30 18:51:18;;;;;;;3.85;3.15;;;;;;;17.55;nan;-24306.06;4956364;28;20183;-69
2022/04/30 19:00:57;;;;;;;3.97;3.05;;;;;;;17.25;nan;-24297.69;4958825;28;20244;-67
2022/04/30 19:01:57;;;;;;;4.78;3.25;;;;;;;17.04;nan;-24291.81;4954374;29;20237;-70
2022/04/30 19:04:23;;;;;;;3.92;2.92;;;;;;;17.07;nan;-24292.81;4957317;28;20213;-71
2022/04/30 19:06:49;;;;;;;3.63;2.80;;;;;;;17.23;nan;-24297.28;4959008;28;20190;-71
2022/04/30 19:09:15;;;;;;;3.65;3.05;;;;;;;17.16;nan;-24295.31;4964082;28;20581;-70
2022/04/30 19:11:41;;;;;;;5.30;2.90;;;;;;;17.08;nan;-24293.09;4960467;28;20196;-70
2022/04/30 19:14:07;;;;;;;3.40;3.03;;;;;;;16.96;nan;-24289.59;4957041;28;20197;-70
2022/04/30 19:16:33;;;;;;;4.05;3.20;;;;;;;17.09;nan;-24293.34;4961785;28;20196;-70
2022/04/30 19:18:59;;;;;;;3.38;3.08;;;;;;;17.13;nan;-24294.34;4957083;28;20572;-69
2022/04/30 19:21:25;;;;;;;4.63;3.30;;;;;;;17.07;nan;-24292.81;4959225;28;20185;-73
2022/04/30 19:23:51;;;;;;;5.43;3.28;;;;;;;16.94;nan;-24289.03;4955021;28;20212;-71
2022/04/30 19:26:17;;;;;;;6.65;3.30;;;;;;;16.91;nan;-24288.34;4954303;28;20260;-73
2022/04/30 19:28:43;;;;;;;3.90;2.72;;;;;;;16.83;nan;-24286.09;4958484;28;20299;-73
2022/04/30 19:31:08;;;;;;;3.72;3.13;;;;;;;16.77;nan;-24284.41;4939187;29;20272;-70
2022/04/30 19:33:34;;;;;;;5.78;3.08;;;;;;;16.69;nan;-24282.19;4954893;29;20192;-71
2022/04/30 19:36:00;;;;;;;4.20;3.25;;;;;;;16.66;nan;-24281.34;4962018;28;20186;-72